Time;durP1;ratioP1;P1;durP2;ratioP2;P2;SDS_P1;SDS_P2;PMS_P1;PMS_P2;Temp;Humidity;BMP_temperature;BMP_pressure;BME280_temperature;BME280_humidity;BME280_pressure;Samples;Min_cycle;Max_cycle;Signal;HPM_P1;HPM_P2
2021/05/02 00:00:31;;;;;;;17.25;7.50;;;512.10;1817.60;;;;;;4875231;29;20038;-81
2021/05/02 00:02:59;;;;;;;22.38;7.75;;;512.00;1817.60;;;;;;4870774;29;20116;-80
2021/05/02 00:05:27;;;;;;;18.50;8.65;;;512.00;1843.20;;;;;;4861297;29;20502;-79
2021/05/02 00:07:53;;;;;;;20.88;7.60;;;487.30;1843.20;;;;;;4851382;29;20040;-81
2021/05/02 00:10:20;;;;;;;20.75;7.65;;;487.30;1843.20;;;;;;4846478;29;20385;-83
2021/05/02 00:12:46;;;;;;;17.85;8.40;;;512.00;1843.20;;;;;;4860546;29;20116;-85
2021/05/02 00:15:18;;;;;;;21.05;8.02;;;512.10;1817.60;;;;;;4863603;29;20429;-86
2021/05/02 00:17:46;;;;;;;19.63;7.95;;;512.00;1817.60;;;;;;4846618;29;20128;-87
2021/05/02 00:20:17;;;;;;;18.55;7.57;;;487.30;1843.20;;;;;;4863341;29;20040;-86
2021/05/02 00:22:49;;;;;;;18.60;7.53;;;487.30;1843.20;;;;;;4864424;29;20033;-79
2021/05/02 00:25:18;;;;;;;21.10;6.72;;;487.20;1843.20;;;;;;4873415;29;20580;-86
2021/05/02 00:27:44;;;;;;;20.55;9.07;;;487.20;1868.80;;;;;;4869379;29;20478;-85
2021/05/02 00:30:16;;;;;;;24.58;9.95;;;487.10;1868.80;;;;;;4845610;29;20025;-86
2021/05/02 00:32:47;;;;;;;17.90;6.50;;;487.20;1868.80;;;;;;4866399;29;20028;-85
2021/05/02 00:35:17;;;;;;;19.73;7.72;;;487.20;1843.20;;;;;;4861324;29;20035;-82
2021/05/02 00:37:43;;;;;;;14.73;6.80;;;487.20;1843.20;;;;;;4863364;29;20037;-85
2021/05/02 00:40:16;;;;;;;14.77;5.78;;;487.10;1843.20;;;;;;4865239;29;20566;-77
2021/05/02 00:42:49;;;;;;;12.43;5.55;;;487.30;1843.20;;;;;;4863820;29;20028;-86
2021/05/02 00:45:29;;;;;;;15.82;6.25;;;487.30;1843.20;;;;;;4863316;29;20025;-85
2021/05/02 00:48:20;;;;;;;17.10;6.00;;;487.20;1843.20;;;;;;4867573;29;20112;-86
2021/05/02 00:50:52;;;;;;;14.80;5.07;;;487.20;1843.20;;;;;;4865981;29;21344;-85
2021/05/02 00:53:47;;;;;;;11.65;4.20;;;487.30;1843.20;;;;;;4850743;29;20071;-80
2021/05/02 00:56:25;;;;;;;13.35;4.30;;;487.30;1843.20;;;;;;4861224;29;20489;-86
2021/05/02 00:59:05;;;;;;;10.82;4.60;;;487.30;1843.20;;;;;;4850530;29;20133;-84
2021/05/02 01:01:42;;;;;;;9.95;4.47;;;512.00;1817.60;;;;;;4860275;29;20021;-80
2021/05/02 01:04:11;;;;;;;12.73;3.42;;;512.10;1792.00;;;;;;4842742;29;20036;-81
2021/05/02 01:06:39;;;;;;;10.02;4.53;;;512.30;1792.00;;;;;;4863178;29;20096;-81
2021/05/02 01:09:06;;;;;;;11.60;3.55;;;512.30;1792.00;;;;;;4866206;29;20382;-80
2021/05/02 01:11:37;;;;;;;10.77;4.03;;;512.40;1766.40;;;;;;4863759;29;20108;-82
2021/05/02 01:14:05;;;;;;;8.07;3.47;;;512.50;1766.40;;;;;;4866478;29;20013;-83
2021/05/02 01:16:35;;;;;;;9.45;3.20;;;512.50;1766.40;;;;;;4845025;29;20033;-83
2021/05/02 01:19:05;;;;;;;10.27;3.92;;;512.60;1766.40;;;;;;4868609;29;20037;-80
2021/05/02 01:21:35;;;;;;;7.10;3.13;;;512.60;1740.80;;;;;;4843885;29;20031;-84
2021/05/02 01:24:02;;;;;;;9.05;3.13;;;512.70;1740.80;;;;;;4849779;29;20037;-80
2021/05/02 01:26:28;;;;;;;7.43;3.10;;;512.60;1766.40;;;;;;4855833;29;20029;-82
2021/05/02 01:28:56;;;;;;;10.30;2.35;;;512.60;1740.80;;;;;;4850440;29;20036;-80
2021/05/02 01:31:22;;;;;;;10.70;3.33;;;512.60;1740.80;;;;;;4864956;29;20025;-84
2021/05/02 01:33:49;;;;;;;8.25;2.30;;;512.60;1740.80;;;;;;4849257;29;20022;-80
2021/05/02 01:36:15;;;;;;;6.72;2.53;;;512.60;1740.80;;;;;;4845612;29;20037;-84
2021/05/02 01:38:42;;;;;;;4.95;2.08;;;512.80;1740.80;;;;;;4876332;29;20165;-79
2021/05/02 01:41:08;;;;;;;3.58;1.65;;;512.80;1740.80;;;;;;4846919;29;20157;-78
2021/05/02 01:43:34;;;;;;;6.97;2.15;;;512.80;1740.80;;;;;;4861627;29;20394;-80
2021/05/02 01:46:01;;;;;;;6.65;2.13;;;512.80;1740.80;;;;;;4869663;29;20036;-80
2021/05/02 01:48:29;;;;;;;5.38;1.88;;;512.60;1766.40;;;;;;4869078;29;20030;-79
2021/05/02 01:51:02;;;;;;;4.57;1.70;;;512.50;1766.40;;;;;;4865206;29;20037;-79
2021/05/02 01:53:29;;;;;;;7.03;1.73;;;512.40;1766.40;;;;;;4864930;29;20026;-80
2021/05/02 01:55:56;;;;;;;6.93;1.67;;;512.50;1740.80;;;;;;4864584;29;20056;-83
2021/05/02 01:58:23;;;;;;;3.50;1.50;;;512.60;1715.20;;;;;;4867230;29;20048;-79
2021/05/02 02:00:54;;;;;;;3.28;1.60;;;512.70;1715.20;;;;;;4847963;29;20128;-80
2021/05/02 02:03:20;;;;;;;4.70;1.77;;;512.80;1715.20;;;;;;4851650;29;20072;-80
2021/05/02 02:05:47;;;;;;;3.85;1.70;;;512.80;1740.80;;;;;;4872079;29;20032;-79
2021/05/02 02:08:13;;;;;;;5.57;1.67;;;512.70;1740.80;;;;;;4844990;29;20033;-79
2021/05/02 02:10:39;;;;;;;11.55;1.50;;;512.60;1740.80;;;;;;4871206;29;20033;-79
2021/05/02 02:13:07;;;;;;;4.45;1.30;;;512.60;1740.80;;;;;;4848972;29;20092;-82
2021/05/02 02:15:33;;;;;;;6.53;1.90;;;512.60;1740.80;;;;;;4854594;29;20029;-82
2021/05/02 02:17:59;;;;;;;4.57;1.50;;;512.60;1715.20;;;;;;4871886;29;20056;-83
2021/05/02 02:20:27;;;;;;;6.85;1.50;;;512.70;1715.20;;;;;;4850630;29;20103;-79
2021/05/02 02:22:59;;;;;;;6.35;1.88;;;512.70;1715.20;;;;;;4864438;29;20033;-80
2021/05/02 02:25:31;;;;;;;5.05;1.95;;;512.70;1715.20;;;;;;4856996;29;20077;-82
2021/05/02 02:28:01;;;;;;;4.65;1.85;;;512.70;1715.20;;;;;;4869665;29;20497;-81
2021/05/02 02:30:27;;;;;;;7.38;2.13;;;512.70;1689.60;;;;;;4858025;29;20469;-82
2021/05/02 02:32:57;;;;;;;5.43;1.65;;;512.70;1689.60;;;;;;4853232;29;20030;-81
2021/05/02 02:35:25;;;;;;;4.13;1.83;;;512.80;1689.60;;;;;;4858644;29;20478;-81
2021/05/02 02:37:55;;;;;;;9.18;2.28;;;512.80;1689.60;;;;;;4871015;29;20429;-81
2021/05/02 02:40:23;;;;;;;5.00;1.80;;;512.90;1664.00;;;;;;4858977;29;20041;-80
2021/05/02 02:42:50;;;;;;;5.43;1.48;;;512.80;1689.60;;;;;;4860736;29;20029;-82
2021/05/02 02:45:16;;;;;;;6.05;1.75;;;512.80;1689.60;;;;;;4870596;29;20032;-80
2021/05/02 02:47:47;;;;;;;8.10;1.65;;;512.70;1689.60;;;;;;4874159;29;20026;-80
2021/05/02 02:50:15;;;;;;;5.78;1.50;;;512.60;1689.60;;;;;;4860953;29;20041;-80
2021/05/02 02:52:53;;;;;;;6.90;2.10;;;512.70;1689.60;;;;;;4854330;29;20033;-81
2021/05/02 02:55:23;;;;;;;7.43;1.85;;;512.70;1689.60;;;;;;4875491;29;20021;-80
2021/05/02 02:57:52;;;;;;;5.80;1.63;;;512.70;1689.60;;;;;;4878067;29;20150;-80
2021/05/02 03:00:24;;;;;;;5.45;2.00;;;512.70;1689.60;;;;;;4877112;29;20036;-80
2021/05/02 03:03:09;;;;;;;8.55;2.00;;;512.70;1689.60;;;;;;4858835;29;20033;-81
2021/05/02 03:05:36;;;;;;;5.18;1.80;;;512.60;1689.60;;;;;;4873346;29;20033;-81
2021/05/02 03:08:05;;;;;;;4.82;1.50;;;512.50;1715.20;;;;;;4877825;29;20093;-83
2021/05/02 03:10:31;;;;;;;6.03;2.08;;;512.50;1715.20;;;;;;4859079;29;20032;-81
2021/05/02 03:12:58;;;;;;;6.07;1.85;;;512.40;1715.20;;;;;;4860338;29;20041;-81
2021/05/02 03:15:25;;;;;;;5.97;2.05;;;512.40;1715.20;;;;;;4858397;29;20521;-81
2021/05/02 03:18:43;;;;;;;8.82;1.77;;;512.30;1715.20;;;;;;4860211;29;20041;-80
2021/05/02 03:21:11;;;;;;;3.58;1.63;;;512.30;1740.80;;;;;;4792154;29;20042;-81
2021/05/02 03:23:42;;;;;;;9.40;2.03;;;512.30;1740.80;;;;;;4796393;29;20066;-80
2021/05/02 03:26:10;;;;;;;5.90;1.95;;;512.30;1740.80;;;;;;4798048;29;20039;-81
2021/05/02 03:28:41;;;;;;;7.07;2.65;;;512.30;1715.20;;;;;;4794409;29;20083;-81
2021/05/02 03:31:10;;;;;;;5.38;1.92;;;512.20;1740.80;;;;;;4799667;29;20126;-80
2021/05/02 03:33:40;;;;;;;6.20;1.85;;;512.20;1740.80;;;;;;4795424;29;20031;-81
2021/05/02 03:36:10;;;;;;;9.32;2.05;;;512.10;1740.80;;;;;;4781661;29;20546;-79
2021/05/02 03:38:45;;;;;;;9.18;2.22;;;512.00;1766.40;;;;;;4781024;29;20829;-80
2021/05/02 03:41:12;;;;;;;6.70;2.10;;;512.00;1740.80;;;;;;4776948;29;20050;-81
2021/05/02 03:43:38;;;;;;;4.65;2.17;;;512.10;1740.80;;;;;;4786103;29;20271;-80
2021/05/02 03:46:04;;;;;;;7.53;2.20;;;512.10;1740.80;;;;;;4782197;29;20118;-85
2021/05/02 03:48:30;;;;;;;8.57;2.33;;;487.10;1740.80;;;;;;4793709;29;20043;-80
2021/05/02 03:50:56;;;;;;;8.27;2.88;;;487.30;1766.40;;;;;;4787255;29;20054;-81
2021/05/02 03:53:22;;;;;;;4.25;1.60;;;487.30;1766.40;;;;;;4781086;29;20393;-80
2021/05/02 03:55:48;;;;;;;11.55;2.28;;;512.00;1766.40;;;;;;4793196;29;20058;-80
2021/05/02 03:58:15;;;;;;;11.65;2.67;;;512.00;1766.40;;;;;;4839305;29;20049;-80
2021/05/02 04:00:42;;;;;;;8.13;2.60;;;487.20;1766.40;;;;;;4873237;29;20080;-80
2021/05/02 04:03:08;;;;;;;15.77;2.67;;;487.30;1766.40;;;;;;4855588;29;20036;-80
2021/05/02 04:05:34;;;;;;;6.82;2.50;;;487.20;1766.40;;;;;;4863933;29;20037;-81
2021/05/02 04:08:00;;;;;;;8.50;2.13;;;487.20;1766.40;;;;;;4869788;29;20418;-83
2021/05/02 04:10:26;;;;;;;6.38;2.47;;;487.10;1766.40;;;;;;4868156;29;20096;-82
2021/05/02 04:12:52;;;;;;;8.52;2.63;;;487.10;1766.40;;;;;;4856707;29;20469;-79
2021/05/02 04:15:18;;;;;;;6.95;2.58;;;487.10;1792.00;;;;;;4854350;29;20033;-80
2021/05/02 04:17:44;;;;;;;8.57;2.90;;;487.00;1792.00;;;;;;4851367;29;20043;-80
2021/05/02 04:20:10;;;;;;;8.30;2.30;;;487.10;1792.00;;;;;;4848446;29;20136;-83
2021/05/02 04:22:37;;;;;;;6.97;2.53;;;487.00;1792.00;;;;;;4863637;29;20406;-79
2021/05/02 04:25:03;;;;;;;8.00;2.58;;;487.10;1792.00;;;;;;4863541;29;20036;-80
2021/05/02 04:27:29;;;;;;;5.47;2.13;;;487.10;1792.00;;;;;;4852149;29;20093;-80
2021/05/02 04:29:57;;;;;;;10.60;2.58;;;487.20;1792.00;;;;;;4867836;29;20037;-81
2021/05/02 04:32:23;;;;;;;10.20;2.90;;;487.10;1792.00;;;;;;4870426;29;20028;-79
2021/05/02 04:34:48;;;;;;;11.70;2.45;;;487.20;1792.00;;;;;;4849078;29;20104;-79
2021/05/02 04:37:14;;;;;;;6.97;2.60;;;487.20;1792.00;;;;;;4852530;29;20565;-80
2021/05/02 04:39:40;;;;;;;7.53;2.50;;;487.20;1792.00;;;;;;4845745;29;20032;-81
2021/05/02 04:42:06;;;;;;;9.52;3.40;;;487.20;1792.00;;;;;;4862299;29;20029;-79
2021/05/02 04:44:32;;;;;;;13.00;3.35;;;487.30;1766.40;;;;;;4866416;29;20108;-80
2021/05/02 04:46:58;;;;;;;7.75;2.63;;;512.00;1766.40;;;;;;4869862;29;20448;-79
2021/05/02 04:49:25;;;;;;;10.00;2.20;;;512.00;1766.40;;;;;;4846233;29;20033;-79
2021/05/02 04:51:50;;;;;;;6.43;3.30;;;512.00;1766.40;;;;;;4859245;29;20141;-80
2021/05/02 04:54:16;;;;;;;7.65;3.05;;;512.00;1766.40;;;;;;4853621;29;20116;-80
2021/05/02 04:56:42;;;;;;;14.35;3.13;;;512.10;1766.40;;;;;;4863660;29;20076;-80
2021/05/02 04:59:08;;;;;;;10.00;3.55;;;512.10;1766.40;;;;;;4850586;29;20041;-80
2021/05/02 05:01:37;;;;;;;8.30;2.88;;;512.10;1766.40;;;;;;4869720;29;20427;-80
2021/05/02 05:04:03;;;;;;;6.30;2.45;;;512.10;1766.40;;;;;;4857994;29;20032;-80
2021/05/02 05:06:28;;;;;;;13.02;4.18;;;512.20;1766.40;;;;;;4849731;29;20033;-80
2021/05/02 05:08:54;;;;;;;13.00;3.25;;;512.20;1766.40;;;;;;4870826;29;20036;-79
2021/05/02 05:11:21;;;;;;;7.65;2.55;;;512.20;1766.40;;;;;;4872827;29;20116;-79
2021/05/02 05:13:46;;;;;;;11.13;2.70;;;512.10;1766.40;;;;;;4867750;29;20030;-78
2021/05/02 05:16:12;;;;;;;12.65;3.55;;;512.20;1740.80;;;;;;4865488;29;20024;-78
2021/05/02 05:18:38;;;;;;;9.68;2.85;;;512.20;1766.40;;;;;;4847673;29;20116;-78
2021/05/02 05:21:04;;;;;;;10.25;3.45;;;512.20;1766.40;;;;;;4868827;29;20029;-79
2021/05/02 05:23:30;;;;;;;11.18;3.33;;;512.20;1766.40;;;;;;4848024;29;20038;-78
2021/05/02 05:25:56;;;;;;;12.30;5.15;;;512.20;1766.40;;;;;;4867943;29;20025;-81
2021/05/02 05:28:23;;;;;;;16.23;6.15;;;512.20;1766.40;;;;;;4862348;29;20386;-82
2021/05/02 05:30:51;;;;;;;16.27;5.50;;;512.40;1766.40;;;;;;4862501;29;20018;-79
2021/05/02 05:33:17;;;;;;;12.18;3.67;;;512.40;1766.40;;;;;;4847841;29;20022;-83
2021/05/02 05:35:42;;;;;;;12.38;4.40;;;512.50;1766.40;;;;;;4869622;29;20066;-77
2021/05/02 05:38:09;;;;;;;14.00;3.88;;;512.50;1766.40;;;;;;4865797;29;20037;-78
2021/05/02 05:40:35;;;;;;;9.55;3.33;;;512.50;1740.80;;;;;;4872960;29;20466;-78
2021/05/02 05:43:03;;;;;;;10.68;4.07;;;512.40;1766.40;;;;;;4851373;29;20422;-78
2021/05/02 05:45:29;;;;;;;12.85;3.25;;;512.60;1766.40;;;;;;4877667;29;20534;-79
2021/05/02 05:47:55;;;;;;;10.32;3.53;;;512.60;1766.40;;;;;;4874255;29;20046;-82
2021/05/02 05:50:22;;;;;;;10.20;3.40;;;537.70;1766.40;;;;;;4866992;29;20046;-78
2021/05/02 05:52:50;;;;;;;10.25;4.05;;;512.80;1740.80;;;;;;4869347;29;20033;-80
2021/05/02 05:55:16;;;;;;;15.18;3.95;;;512.80;1740.80;;;;;;4863405;29;20033;-79
2021/05/02 05:57:45;;;;;;;11.45;4.05;;;512.80;1766.40;;;;;;4873722;29;20064;-79
2021/05/02 06:00:11;;;;;;;9.63;3.53;;;512.80;1766.40;;;;;;4869428;29;20030;-82
2021/05/02 06:02:37;;;;;;;11.10;3.65;;;537.60;1766.40;;;;;;4867454;29;20028;-79
2021/05/02 06:05:04;;;;;;;9.52;3.33;;;537.70;1766.40;;;;;;4852745;29;20110;-82
2021/05/02 06:07:30;;;;;;;12.80;4.63;;;537.80;1766.40;;;;;;4852801;29;20028;-79
2021/05/02 06:09:56;;;;;;;12.27;3.03;;;537.80;1766.40;;;;;;4874193;29;20181;-78
2021/05/02 06:12:22;;;;;;;10.52;4.07;;;537.90;1766.40;;;;;;4861664;29;20525;-79
2021/05/02 06:14:48;;;;;;;12.75;3.53;;;538.00;1740.80;;;;;;4867800;29;20142;-80
2021/05/02 06:17:16;;;;;;;8.13;3.40;;;538.00;1740.80;;;;;;4851212;29;20053;-79
2021/05/02 06:19:42;;;;;;;18.40;7.55;;;538.10;1740.80;;;;;;4857855;29;20029;-78
2021/05/02 06:22:08;;;;;;;12.43;3.22;;;538.20;1766.40;;;;;;4866991;29;20056;-80
2021/05/02 06:24:34;;;;;;;11.23;3.53;;;538.30;1740.80;;;;;;4865847;29;20029;-78
2021/05/02 06:27:00;;;;;;;12.68;3.47;;;538.40;1715.20;;;;;;4862430;29;20049;-79
2021/05/02 06:29:25;;;;;;;11.55;4.22;;;538.50;1740.80;;;;;;4880756;29;20031;-77
2021/05/02 06:31:51;;;;;;;11.98;4.15;;;538.50;1740.80;;;;;;4868576;29;20036;-78
2021/05/02 06:34:17;;;;;;;10.23;4.60;;;538.50;1740.80;;;;;;4871437;29;20061;-78
2021/05/02 06:36:43;;;;;;;17.27;5.70;;;563.20;1740.80;;;;;;4865082;29;20033;-75
2021/05/02 06:39:09;;;;;;;11.18;3.47;;;563.20;1740.80;;;;;;4865032;29;20093;-78
2021/05/02 06:41:40;;;;;;;16.10;3.78;;;563.20;1740.80;;;;;;4870539;29;20017;-78
2021/05/02 06:44:08;;;;;;;10.68;3.72;;;563.30;1740.80;;;;;;4880921;29;20061;-77
2021/05/02 06:46:35;;;;;;;17.00;3.50;;;563.30;1715.20;;;;;;4880421;29;20037;-78
2021/05/02 06:49:03;;;;;;;10.20;3.55;;;563.40;1740.80;;;;;;4881138;29;20085;-78
2021/05/02 06:51:29;;;;;;;11.38;3.47;;;563.50;1689.60;;;;;;4880131;29;20075;-77
2021/05/02 06:53:56;;;;;;;15.10;4.88;;;563.60;1689.60;;;;;;4872437;29;20116;-77
2021/05/02 06:56:22;;;;;;;13.15;4.28;;;563.60;1715.20;;;;;;4865918;29;20105;-78
2021/05/02 06:58:49;;;;;;;13.10;4.80;;;563.70;1689.60;;;;;;4863922;29;20108;-78
2021/05/02 07:01:16;;;;;;;10.00;3.20;;;564.00;1664.00;;;;;;4851339;29;20030;-78
2021/05/02 07:03:42;;;;;;;15.30;3.42;;;564.10;1612.80;;;;;;4864139;29;20078;-77
2021/05/02 07:06:08;;;;;;;11.43;3.70;;;589.00;1587.20;;;;;;4864900;29;20069;-78
2021/05/02 07:08:34;;;;;;;8.57;3.75;;;589.10;1561.60;;;;;;4859078;29;20482;-78
2021/05/02 07:11:00;;;;;;;11.48;3.90;;;589.40;1536.00;;;;;;4880341;29;20503;-78
2021/05/02 07:13:27;;;;;;;11.30;2.88;;;589.60;1459.20;;;;;;4863624;29;20033;-78
2021/05/02 07:15:54;;;;;;;11.52;2.95;;;589.70;1484.80;;;;;;4863294;29;20037;-80
2021/05/02 07:18:20;;;;;;;13.32;3.90;;;614.50;1408.00;;;;;;4867996;29;20093;-78
2021/05/02 07:20:47;;;;;;;15.63;4.15;;;614.60;1433.60;;;;;;4849297;29;20025;-80
2021/05/02 07:23:13;;;;;;;13.15;3.22;;;614.60;1382.40;;;;;;4850121;29;20371;-79
2021/05/02 07:25:39;;;;;;;14.00;3.90;;;614.70;1433.60;;;;;;4859231;29;20032;-79
2021/05/02 07:28:04;;;;;;;13.70;3.25;;;614.60;1433.60;;;;;;4864912;29;20048;-78
2021/05/02 07:30:30;;;;;;;11.70;3.53;;;614.80;1408.00;;;;;;4863717;29;20040;-79
2021/05/02 07:32:56;;;;;;;10.57;2.65;;;614.80;1408.00;;;;;;4879905;29;20033;-78
2021/05/02 07:35:21;;;;;;;10.68;3.25;;;614.90;1382.40;;;;;;4880226;29;20029;-79
2021/05/02 07:37:47;;;;;;;6.68;2.90;;;614.90;1382.40;;;;;;4862910;29;20040;-77
2021/05/02 07:40:13;;;;;;;11.10;5.35;;;615.00;1382.40;;;;;;4880081;29;20077;-78
2021/05/02 07:42:39;;;;;;;15.13;4.97;;;615.20;1382.40;;;;;;4879837;29;20033;-78
2021/05/02 07:45:06;;;;;;;12.95;3.90;;;615.30;1382.40;;;;;;4879769;29;20112;-78
2021/05/02 07:47:33;;;;;;;9.90;3.95;;;615.10;1408.00;;;;;;4880189;29;20035;-78
2021/05/02 07:49:59;;;;;;;17.00;4.63;;;615.10;1408.00;;;;;;4878643;29;20036;-78
2021/05/02 07:52:25;;;;;;;16.83;3.75;;;615.00;1408.00;;;;;;4866051;29;20093;-79
2021/05/02 07:54:51;;;;;;;10.88;4.00;;;614.90;1433.60;;;;;;4879323;29;20025;-79
2021/05/02 07:57:16;;;;;;;13.02;5.00;;;614.90;1459.20;;;;;;4862957;29;20040;-78
2021/05/02 07:59:42;;;;;;;12.82;3.38;;;614.90;1459.20;;;;;;4879507;29;20048;-77
2021/05/02 08:02:11;;;;;;;14.32;4.03;;;614.90;1459.20;;;;;;4879697;29;20073;-77
2021/05/02 08:04:38;;;;;;;9.27;3.58;;;615.10;1433.60;;;;;;4879671;29;20460;-77
2021/05/02 08:07:09;;;;;;;11.10;4.05;;;615.00;1459.20;;;;;;4876885;29;20057;-78
2021/05/02 08:09:36;;;;;;;19.60;6.13;;;615.10;1459.20;;;;;;4880284;29;20061;-82
2021/05/02 08:12:02;;;;;;;19.95;5.30;;;615.20;1433.60;;;;;;4877323;29;20024;-78
2021/05/02 08:14:29;;;;;;;18.92;4.43;;;615.30;1408.00;;;;;;4867645;29;20470;-79
2021/05/02 08:16:55;;;;;;;16.80;4.32;;;615.20;1382.40;;;;;;4862734;29;20048;-78
2021/05/02 08:19:21;;;;;;;15.38;3.40;;;615.30;1382.40;;;;;;4862771;29;20041;-79
2021/05/02 08:21:47;;;;;;;22.98;4.55;;;640.00;1382.40;;;;;;4878899;29;20398;-78
2021/05/02 08:24:13;;;;;;;15.82;3.38;;;640.20;1382.40;;;;;;4879244;29;20040;-76
2021/05/02 08:26:40;;;;;;;14.40;3.00;;;640.40;1356.80;;;;;;4879119;29;20029;-77
2021/05/02 08:29:06;;;;;;;14.20;3.78;;;640.50;1331.20;;;;;;4879103;29;20470;-79
2021/05/02 08:31:32;;;;;;;14.43;3.92;;;640.60;1331.20;;;;;;4862784;29;20033;-79
2021/05/02 08:33:58;;;;;;;9.55;3.10;;;640.70;1254.40;;;;;;4858525;29;20100;-79
2021/05/02 08:36:23;;;;;;;22.38;4.38;;;640.60;1254.40;;;;;;4852459;29;20492;-79
2021/05/02 08:38:49;;;;;;;20.67;4.22;;;640.70;1228.80;;;;;;4864965;29;20096;-79
2021/05/02 08:41:15;;;;;;;18.40;4.82;;;640.90;1203.20;;;;;;4852884;29;20034;-79
2021/05/02 08:43:41;;;;;;;12.90;2.97;;;640.90;1203.20;;;;;;4872338;29;20028;-79
2021/05/02 08:46:10;;;;;;;14.38;3.72;;;665.60;1254.40;;;;;;4871630;29;20509;-78
2021/05/02 08:48:36;;;;;;;18.70;5.15;;;665.60;1228.80;;;;;;4848588;29;20032;-79
2021/05/02 08:51:02;;;;;;;17.60;3.72;;;665.70;1228.80;;;;;;4865579;29;20045;-77
2021/05/02 08:53:28;;;;;;;20.92;4.47;;;665.70;1177.60;;;;;;4866738;29;20033;-78
2021/05/02 08:55:55;;;;;;;16.08;4.72;;;665.90;1177.60;;;;;;4864246;29;20043;-77
2021/05/02 08:58:23;;;;;;;19.88;3.70;;;665.90;1152.00;;;;;;4861754;29;20037;-77
2021/05/02 09:00:50;;;;;;;11.50;3.60;;;666.00;1177.60;;;;;;4845291;29;20131;-77
2021/05/02 09:03:17;;;;;;;15.25;3.90;;;666.10;1152.00;;;;;;4859713;29;20040;-79
2021/05/02 09:05:44;;;;;;;19.38;6.88;;;666.20;1152.00;;;;;;4864841;29;20021;-79
2021/05/02 09:08:29;;;;;;;15.75;4.85;;;666.30;1152.00;;;;;;4867806;29;20095;-78
2021/05/02 09:10:55;;;;;;;23.70;5.83;;;666.30;1152.00;;;;;;4878261;29;20068;-78
2021/05/02 09:13:20;;;;;;;18.08;5.57;;;666.40;1152.00;;;;;;4878317;29;20498;-77
2021/05/02 09:16:00;;;;;;;22.60;4.75;;;691.20;1152.00;;;;;;4871405;29;20025;-78
2021/05/02 09:18:35;;;;;;;16.42;4.57;;;691.30;1152.00;;;;;;4875552;29;20089;-78
2021/05/02 09:21:02;;;;;;;16.13;4.78;;;691.20;1152.00;;;;;;4878212;29;20025;-76
2021/05/02 09:23:35;;;;;;;18.60;4.75;;;666.30;1152.00;;;;;;4867295;29;20124;-78
2021/05/02 09:26:02;;;;;;;20.33;5.70;;;666.00;1152.00;;;;;;4877960;29;20025;-79
2021/05/02 09:28:48;;;;;;;29.98;5.55;;;665.90;1177.60;;;;;;4861930;29;20109;-76
2021/05/02 09:31:17;;;;;;;20.75;5.60;;;665.70;1203.20;;;;;;4861608;29;20052;-78
2021/05/02 09:33:43;;;;;;;23.52;7.97;;;665.60;1228.80;;;;;;4869286;29;20082;-79
2021/05/02 09:36:12;;;;;;;25.92;7.55;;;640.90;1228.80;;;;;;4865700;29;20478;-75
2021/05/02 09:38:39;;;;;;;22.70;6.25;;;640.70;1228.80;;;;;;4860777;29;20086;-77
2021/05/02 09:41:05;;;;;;;22.98;7.70;;;665.60;1228.80;;;;;;4867539;29;20033;-76
2021/05/02 09:43:33;;;;;;;21.85;7.53;;;665.60;1228.80;;;;;;4869082;29;20033;-83
2021/05/02 09:46:24;;;;;;;19.55;6.28;;;640.90;1228.80;;;;;;4868497;29;20430;-78
2021/05/02 09:49:15;;;;;;;24.05;7.78;;;640.90;1228.80;;;;;;4875584;29;20077;-78
2021/05/02 09:51:53;;;;;;;21.23;6.78;;;640.70;1203.20;;;;;;4866782;29;20522;-77
2021/05/02 09:54:26;;;;;;;22.08;5.75;;;640.60;1254.40;;;;;;4868130;29;20088;-78
2021/05/02 09:56:54;;;;;;;25.13;6.00;;;640.60;1254.40;;;;;;4858142;29;20025;-74
2021/05/02 09:59:33;;;;;;;30.10;5.75;;;665.70;1203.20;;;;;;4862383;29;20132;-77
2021/05/02 10:02:11;;;;;;;13.48;5.22;;;666.20;1177.60;;;;;;4874463;29;20038;-77
2021/05/02 10:04:47;;;;;;;20.70;5.55;;;691.20;1177.60;;;;;;4874905;29;20085;-77
2021/05/02 10:07:14;;;;;;;23.60;5.25;;;691.40;1203.20;;;;;;4863834;29;20025;-79
2021/05/02 10:09:41;;;;;;;21.17;5.38;;;691.90;1177.60;;;;;;4858056;29;20034;-78
2021/05/02 10:12:09;;;;;;;20.30;5.43;;;692.10;1152.00;;;;;;4873609;29;20084;-79
2021/05/02 10:14:39;;;;;;;18.25;4.70;;;716.80;1177.60;;;;;;4877971;29;20033;-79
2021/05/02 10:17:06;;;;;;;19.30;5.03;;;717.20;1177.60;;;;;;4853133;29;20025;-77
2021/05/02 10:19:32;;;;;;;24.00;4.70;;;717.20;1152.00;;;;;;4872832;29;20533;-77
2021/05/02 10:21:58;;;;;;;16.50;4.60;;;692.10;1100.80;;;;;;4864865;29;20025;-78
2021/05/02 10:24:24;;;;;;;17.65;5.20;;;692.10;1126.40;;;;;;4864334;29;20138;-78
2021/05/02 10:26:51;;;;;;;20.33;5.40;;;716.90;1100.80;;;;;;4860668;29;20018;-78
2021/05/02 10:29:28;;;;;;;15.60;4.60;;;717.00;1100.80;;;;;;4863019;29;20020;-78
2021/05/02 10:32:09;;;;;;;22.83;4.20;;;717.40;1100.80;;;;;;4860707;29;20137;-79
2021/05/02 10:34:48;;;;;;;19.48;5.68;;;717.50;1100.80;;;;;;4876957;29;20381;-80
2021/05/02 10:37:33;;;;;;;30.92;7.18;;;717.70;1049.60;;;;;;4881221;29;20036;-77
2021/05/02 10:40:02;;;;;;;22.05;5.65;;;742.40;1024.00;;;;;;4863260;29;20086;-77
2021/05/02 10:42:52;;;;;;;19.50;4.90;;;742.40;1024.00;;;;;;4875446;29;20036;-78
2021/05/02 10:45:30;;;;;;;18.83;5.07;;;717.70;972.80;;;;;;4864709;29;20128;-77
2021/05/02 10:48:02;;;;;;;30.58;5.82;;;742.50;1049.60;;;;;;4880951;29;20029;-78
2021/05/02 10:50:36;;;;;;;18.65;5.45;;;742.70;1024.00;;;;;;4880237;29;20052;-79
2021/05/02 10:53:09;;;;;;;17.25;5.03;;;742.80;1024.00;;;;;;4860961;29;20045;-77
2021/05/02 10:56:04;;;;;;;21.20;5.05;;;742.70;998.40;;;;;;4880625;29;20025;-76
2021/05/02 10:58:35;;;;;;;25.67;7.05;;;742.60;972.80;;;;;;4864003;29;20401;-77
2021/05/02 11:01:05;;;;;;;20.98;5.10;;;742.70;1024.00;;;;;;4864302;29;20037;-77
2021/05/02 11:03:57;;;;;;;19.73;5.43;;;742.80;998.40;;;;;;4880482;29;20112;-76
2021/05/02 11:06:38;;;;;;;18.90;5.13;;;743.00;1024.00;;;;;;4880175;29;20060;-77
2021/05/02 11:09:11;;;;;;;18.85;5.15;;;742.50;1049.60;;;;;;4880692;29;20053;-77
2021/05/02 11:11:42;;;;;;;23.48;5.45;;;742.80;1075.20;;;;;;4880607;29;20031;-77
2021/05/02 11:14:08;;;;;;;22.70;4.53;;;742.80;972.80;;;;;;4880538;29;20024;-76
2021/05/02 11:16:42;;;;;;;29.35;6.32;;;743.00;1024.00;;;;;;4868623;29;20350;-78
2021/05/02 11:19:13;;;;;;;18.48;5.60;;;743.10;972.80;;;;;;4876115;29;20048;-78
2021/05/02 11:21:51;;;;;;;24.25;5.85;;;743.10;972.80;;;;;;4873189;29;20414;-79
2021/05/02 11:24:25;;;;;;;22.92;5.28;;;743.20;972.80;;;;;;4857084;29;20064;-79
2021/05/02 11:30:06;;;;;;;26.00;5.50;;;768.10;972.80;;;;;;4876325;29;20029;-78
2021/05/02 11:32:38;;;;;;;20.42;5.97;;;768.20;921.60;;;;;;4861921;29;20469;-78
2021/05/02 11:35:12;;;;;;;21.88;4.95;;;768.20;921.60;;;;;;4875859;29;20070;-84
2021/05/02 11:37:44;;;;;;;20.55;4.78;;;768.30;947.20;;;;;;4873993;29;20628;-82
2021/05/02 11:40:25;;;;;;;12.20;4.85;;;743.00;998.40;;;;;;4878454;29;20033;-78
2021/05/02 11:43:00;;;;;;;15.70;5.65;;;742.70;998.40;;;;;;4872338;29;20025;-77
2021/05/02 11:45:39;;;;;;;21.27;5.38;;;717.70;1024.00;;;;;;4876912;29;20024;-79
2021/05/02 11:48:07;;;;;;;24.02;5.38;;;717.70;1024.00;;;;;;4872193;29;20033;-79
2021/05/02 11:50:40;;;;;;;25.92;5.90;;;717.60;998.40;;;;;;4871770;29;20125;-78
2021/05/02 11:53:06;;;;;;;24.67;4.97;;;742.40;1024.00;;;;;;4862755;29;20426;-79
2021/05/02 11:55:38;;;;;;;20.90;5.63;;;742.80;998.40;;;;;;4865116;29;20025;-79
2021/05/02 11:58:06;;;;;;;25.20;5.68;;;743.00;998.40;;;;;;4868314;29;20044;-81
2021/05/02 12:00:47;;;;;;;23.17;5.30;;;743.00;972.80;;;;;;4869924;29;20017;-79
2021/05/02 12:03:15;;;;;;;23.30;5.70;;;743.30;998.40;;;;;;4869886;29;20120;-78
2021/05/02 12:05:53;;;;;;;21.33;5.38;;;768.10;947.20;;;;;;4871211;29;20025;-78
2021/05/02 12:08:22;;;;;;;20.45;4.57;;;743.30;947.20;;;;;;4853009;29;20110;-83
2021/05/02 12:10:53;;;;;;;20.65;5.22;;;743.10;998.40;;;;;;4855504;29;20041;-80
2021/05/02 12:13:32;;;;;;;15.48;5.68;;;743.10;972.80;;;;;;4874443;29;20532;-76
2021/05/02 12:16:02;;;;;;;16.85;4.80;;;743.20;998.40;;;;;;4853406;29;20049;-75
2021/05/02 12:18:40;;;;;;;19.00;5.50;;;768.00;947.20;;;;;;4874296;29;20045;-78
2021/05/02 12:21:22;;;;;;;14.95;4.95;;;768.10;947.20;;;;;;4871601;29;20043;-78
2021/05/02 12:23:48;;;;;;;24.25;5.40;;;743.00;972.80;;;;;;4867813;29;20030;-77